sensor_id;sensor_type;location;lat;lon;timestamp;P1;durP1;ratioP1;P2;durP2;ratioP2
37459;SDS011;23318;50.966;5.284;2022-12-10T00:01:06;70.10;;;29.73;;
37459;SDS011;23318;50.966;5.284;2022-12-10T00:03:34;52.63;;;28.73;;
37459;SDS011;23318;50.966;5.284;2022-12-10T00:06:01;64.13;;;31.95;;
37459;SDS011;23318;50.966;5.284;2022-12-10T00:08:28;61.80;;;30.80;;
37459;SDS011;23318;50.966;5.284;2022-12-10T00:10:53;61.45;;;30.10;;
37459;SDS011;23318;50.966;5.284;2022-12-10T00:13:19;63.83;;;31.13;;
37459;SDS011;23318;50.966;5.284;2022-12-10T00:15:45;63.08;;;32.17;;
37459;SDS011;23318;50.966;5.284;2022-12-10T00:18:10;63.42;;;31.98;;
37459;SDS011;23318;50.966;5.284;2022-12-10T00:20:37;56.97;;;29.13;;
37459;SDS011;23318;50.966;5.284;2022-12-10T00:23:03;61.28;;;27.98;;
37459;SDS011;23318;50.966;5.284;2022-12-10T00:25:28;55.97;;;29.35;;
37459;SDS011;23318;50.966;5.284;2022-12-10T00:27:54;55.72;;;28.45;;
37459;SDS011;23318;50.966;5.284;2022-12-10T00:30:20;53.08;;;28.00;;
37459;SDS011;23318;50.966;5.284;2022-12-10T00:32:45;55.60;;;28.55;;
37459;SDS011;23318;50.966;5.284;2022-12-10T00:35:11;56.78;;;28.50;;
37459;SDS011;23318;50.966;5.284;2022-12-10T00:37:36;54.75;;;29.15;;
37459;SDS011;23318;50.966;5.284;2022-12-10T00:40:02;53.35;;;27.88;;
37459;SDS011;23318;50.966;5.284;2022-12-10T00:42:28;56.60;;;28.50;;
37459;SDS011;23318;50.966;5.284;2022-12-10T00:44:54;59.45;;;28.50;;
37459;SDS011;23318;50.966;5.284;2022-12-10T00:47:19;56.17;;;29.05;;
37459;SDS011;23318;50.966;5.284;2022-12-10T00:49:45;55.00;;;28.42;;
37459;SDS011;23318;50.966;5.284;2022-12-10T00:52:11;57.50;;;31.55;;
37459;SDS011;23318;50.966;5.284;2022-12-10T00:54:36;55.70;;;29.45;;
37459;SDS011;23318;50.966;5.284;2022-12-10T00:57:02;55.63;;;29.85;;
37459;SDS011;23318;50.966;5.284;2022-12-10T00:59:28;58.33;;;29.13;;
37459;SDS011;23318;50.966;5.284;2022-12-10T01:01:53;57.70;;;29.48;;
37459;SDS011;23318;50.966;5.284;2022-12-10T01:04:19;58.88;;;29.88;;
37459;SDS011;23318;50.966;5.284;2022-12-10T01:06:48;58.10;;;29.77;;
37459;SDS011;23318;50.966;5.284;2022-12-10T01:09:17;60.30;;;30.23;;
37459;SDS011;23318;50.966;5.284;2022-12-10T01:11:45;64.25;;;29.58;;
37459;SDS011;23318;50.966;5.284;2022-12-10T01:14:13;59.75;;;29.38;;
37459;SDS011;23318;50.966;5.284;2022-12-10T01:16:42;53.65;;;27.65;;
37459;SDS011;23318;50.966;5.284;2022-12-10T01:19:08;53.78;;;27.88;;
37459;SDS011;23318;50.966;5.284;2022-12-10T01:21:34;55.33;;;27.23;;
37459;SDS011;23318;50.966;5.284;2022-12-10T01:24:01;61.80;;;30.10;;
37459;SDS011;23318;50.966;5.284;2022-12-10T01:26:28;59.60;;;29.17;;
37459;SDS011;23318;50.966;5.284;2022-12-10T01:28:56;54.55;;;28.05;;
37459;SDS011;23318;50.966;5.284;2022-12-10T01:31:23;63.15;;;30.52;;
37459;SDS011;23318;50.966;5.284;2022-12-10T01:33:52;54.95;;;29.15;;
37459;SDS011;23318;50.966;5.284;2022-12-10T01:36:29;60.13;;;28.10;;
37459;SDS011;23318;50.966;5.284;2022-12-10T01:38:56;58.83;;;27.63;;
37459;SDS011;23318;50.966;5.284;2022-12-10T01:41:25;56.00;;;27.70;;
37459;SDS011;23318;50.966;5.284;2022-12-10T01:43:58;54.00;;;29.35;;
37459;SDS011;23318;50.966;5.284;2022-12-10T01:46:29;50.92;;;26.35;;
37459;SDS011;23318;50.966;5.284;2022-12-10T01:48:57;51.40;;;26.05;;
37459;SDS011;23318;50.966;5.284;2022-12-10T01:51:25;50.35;;;26.15;;
37459;SDS011;23318;50.966;5.284;2022-12-10T01:53:52;51.10;;;26.60;;
37459;SDS011;23318;50.966;5.284;2022-12-10T01:56:19;51.38;;;24.75;;
37459;SDS011;23318;50.966;5.284;2022-12-10T01:58:45;55.90;;;27.75;;
37459;SDS011;23318;50.966;5.284;2022-12-10T02:01:19;57.55;;;28.55;;
37459;SDS011;23318;50.966;5.284;2022-12-10T02:03:50;59.35;;;27.00;;
37459;SDS011;23318;50.966;5.284;2022-12-10T02:09:27;55.50;;;27.73;;
37459;SDS011;23318;50.966;5.284;2022-12-10T02:17:05;58.83;;;29.55;;
37459;SDS011;23318;50.966;5.284;2022-12-10T02:22:31;58.70;;;28.48;;
37459;SDS011;23318;50.966;5.284;2022-12-10T02:25:02;52.17;;;27.33;;
37459;SDS011;23318;50.966;5.284;2022-12-10T02:27:33;59.90;;;29.75;;
37459;SDS011;23318;50.966;5.284;2022-12-10T02:30:08;56.58;;;28.52;;
37459;SDS011;23318;50.966;5.284;2022-12-10T02:32:35;58.65;;;30.55;;
37459;SDS011;23318;50.966;5.284;2022-12-10T02:35:06;63.40;;;31.23;;
37459;SDS011;23318;50.966;5.284;2022-12-10T02:37:39;61.92;;;28.25;;
37459;SDS011;23318;50.966;5.284;2022-12-10T02:40:30;58.67;;;27.92;;
37459;SDS011;23318;50.966;5.284;2022-12-10T02:42:58;53.10;;;26.00;;
37459;SDS011;23318;50.966;5.284;2022-12-10T02:45:25;54.63;;;26.88;;
37459;SDS011;23318;50.966;5.284;2022-12-10T02:47:53;51.03;;;26.67;;
37459;SDS011;23318;50.966;5.284;2022-12-10T02:50:22;55.80;;;26.98;;
37459;SDS011;23318;50.966;5.284;2022-12-10T02:52:49;55.22;;;26.80;;
37459;SDS011;23318;50.966;5.284;2022-12-10T02:55:15;54.35;;;24.98;;
37459;SDS011;23318;50.966;5.284;2022-12-10T02:57:56;50.38;;;25.00;;
37459;SDS011;23318;50.966;5.284;2022-12-10T03:01:06;53.80;;;26.50;;
37459;SDS011;23318;50.966;5.284;2022-12-10T03:03:43;57.63;;;25.83;;
37459;SDS011;23318;50.966;5.284;2022-12-10T03:06:41;59.60;;;28.63;;
37459;SDS011;23318;50.966;5.284;2022-12-10T03:09:20;63.67;;;29.02;;
37459;SDS011;23318;50.966;5.284;2022-12-10T03:11:50;65.28;;;30.17;;
37459;SDS011;23318;50.966;5.284;2022-12-10T03:14:24;68.00;;;29.67;;
37459;SDS011;23318;50.966;5.284;2022-12-10T03:16:57;61.33;;;27.80;;
37459;SDS011;23318;50.966;5.284;2022-12-10T03:19:32;59.58;;;28.73;;
37459;SDS011;23318;50.966;5.284;2022-12-10T03:22:05;57.80;;;28.13;;
37459;SDS011;23318;50.966;5.284;2022-12-10T03:24:33;64.30;;;29.48;;
37459;SDS011;23318;50.966;5.284;2022-12-10T03:27:00;58.72;;;29.27;;
37459;SDS011;23318;50.966;5.284;2022-12-10T03:29:33;65.65;;;29.17;;
37459;SDS011;23318;50.966;5.284;2022-12-10T03:32:04;59.00;;;28.15;;
37459;SDS011;23318;50.966;5.284;2022-12-10T03:34:30;57.60;;;27.67;;
37459;SDS011;23318;50.966;5.284;2022-12-10T03:36:57;66.72;;;29.50;;
37459;SDS011;23318;50.966;5.284;2022-12-10T03:39:24;63.05;;;30.80;;
37459;SDS011;23318;50.966;5.284;2022-12-10T03:41:50;64.50;;;30.73;;
37459;SDS011;23318;50.966;5.284;2022-12-10T03:46:55;62.85;;;27.95;;
37459;SDS011;23318;50.966;5.284;2022-12-10T03:49:21;64.85;;;29.95;;
37459;SDS011;23318;50.966;5.284;2022-12-10T03:51:46;65.78;;;29.20;;
37459;SDS011;23318;50.966;5.284;2022-12-10T03:54:12;64.68;;;29.75;;
37459;SDS011;23318;50.966;5.284;2022-12-10T03:56:37;65.43;;;30.38;;
37459;SDS011;23318;50.966;5.284;2022-12-10T03:59:03;66.90;;;29.58;;
37459;SDS011;23318;50.966;5.284;2022-12-10T04:01:29;61.85;;;28.45;;
37459;SDS011;23318;50.966;5.284;2022-12-10T04:03:54;66.63;;;30.95;;
37459;SDS011;23318;50.966;5.284;2022-12-10T04:06:20;69.18;;;31.20;;
37459;SDS011;23318;50.966;5.284;2022-12-10T04:08:46;67.40;;;31.58;;
37459;SDS011;23318;50.966;5.284;2022-12-10T04:11:13;69.28;;;31.27;;
37459;SDS011;23318;50.966;5.284;2022-12-10T04:13:39;67.80;;;31.48;;
37459;SDS011;23318;50.966;5.284;2022-12-10T04:16:25;67.50;;;31.88;;
37459;SDS011;23318;50.966;5.284;2022-12-10T04:18:54;70.43;;;29.50;;
37459;SDS011;23318;50.966;5.284;2022-12-10T04:21:22;67.43;;;28.58;;
37459;SDS011;23318;50.966;5.284;2022-12-10T04:24:10;70.30;;;31.67;;
37459;SDS011;23318;50.966;5.284;2022-12-10T04:26:55;64.50;;;29.85;;
37459;SDS011;23318;50.966;5.284;2022-12-10T04:29:23;69.97;;;32.58;;
37459;SDS011;23318;50.966;5.284;2022-12-10T04:31:51;69.43;;;32.35;;
37459;SDS011;23318;50.966;5.284;2022-12-10T04:34:17;71.50;;;31.55;;
37459;SDS011;23318;50.966;5.284;2022-12-10T04:36:43;74.97;;;31.92;;
37459;SDS011;23318;50.966;5.284;2022-12-10T04:39:09;69.20;;;31.70;;
37459;SDS011;23318;50.966;5.284;2022-12-10T04:41:37;69.00;;;30.25;;
37459;SDS011;23318;50.966;5.284;2022-12-10T04:44:06;81.55;;;31.73;;
37459;SDS011;23318;50.966;5.284;2022-12-10T04:46:32;73.85;;;32.38;;
37459;SDS011;23318;50.966;5.284;2022-12-10T04:48:58;71.50;;;32.80;;
37459;SDS011;23318;50.966;5.284;2022-12-10T04:51:24;67.78;;;30.85;;
37459;SDS011;23318;50.966;5.284;2022-12-10T04:53:49;68.85;;;31.42;;
37459;SDS011;23318;50.966;5.284;2022-12-10T04:56:15;64.47;;;29.92;;
37459;SDS011;23318;50.966;5.284;2022-12-10T04:58:41;65.22;;;31.38;;
37459;SDS011;23318;50.966;5.284;2022-12-10T05:01:07;66.50;;;31.08;;
37459;SDS011;23318;50.966;5.284;2022-12-10T05:03:35;68.32;;;29.80;;
37459;SDS011;23318;50.966;5.284;2022-12-10T05:06:04;67.50;;;29.85;;
37459;SDS011;23318;50.966;5.284;2022-12-10T05:08:32;72.65;;;29.88;;
37459;SDS011;23318;50.966;5.284;2022-12-10T05:11:02;67.90;;;30.30;;
37459;SDS011;23318;50.966;5.284;2022-12-10T05:13:30;65.68;;;31.67;;
37459;SDS011;23318;50.966;5.284;2022-12-10T05:15:56;70.47;;;30.45;;
37459;SDS011;23318;50.966;5.284;2022-12-10T05:18:23;65.20;;;29.90;;
37459;SDS011;23318;50.966;5.284;2022-12-10T05:20:49;68.88;;;31.50;;
37459;SDS011;23318;50.966;5.284;2022-12-10T05:23:14;75.30;;;31.20;;
37459;SDS011;23318;50.966;5.284;2022-12-10T05:26:06;74.68;;;32.40;;
37459;SDS011;23318;50.966;5.284;2022-12-10T05:28:38;67.95;;;31.48;;
37459;SDS011;23318;50.966;5.284;2022-12-10T05:31:16;73.90;;;32.72;;
37459;SDS011;23318;50.966;5.284;2022-12-10T05:33:43;75.18;;;29.77;;
37459;SDS011;23318;50.966;5.284;2022-12-10T05:36:10;67.22;;;29.88;;
37459;SDS011;23318;50.966;5.284;2022-12-10T05:38:38;63.92;;;29.65;;
37459;SDS011;23318;50.966;5.284;2022-12-10T05:41:04;67.68;;;29.83;;
37459;SDS011;23318;50.966;5.284;2022-12-10T05:43:31;61.58;;;29.58;;
37459;SDS011;23318;50.966;5.284;2022-12-10T05:46:01;65.55;;;28.75;;
37459;SDS011;23318;50.966;5.284;2022-12-10T05:48:27;70.55;;;29.80;;
37459;SDS011;23318;50.966;5.284;2022-12-10T05:50:54;67.60;;;29.92;;
37459;SDS011;23318;50.966;5.284;2022-12-10T05:53:20;63.97;;;30.02;;
37459;SDS011;23318;50.966;5.284;2022-12-10T05:55:45;73.07;;;31.20;;
37459;SDS011;23318;50.966;5.284;2022-12-10T05:58:11;70.50;;;29.65;;
37459;SDS011;23318;50.966;5.284;2022-12-10T06:00:38;71.28;;;29.98;;
37459;SDS011;23318;50.966;5.284;2022-12-10T06:03:04;66.43;;;28.00;;
37459;SDS011;23318;50.966;5.284;2022-12-10T06:05:36;73.65;;;32.85;;
37459;SDS011;23318;50.966;5.284;2022-12-10T06:08:02;71.15;;;30.63;;
37459;SDS011;23318;50.966;5.284;2022-12-10T06:10:28;72.80;;;30.52;;
37459;SDS011;23318;50.966;5.284;2022-12-10T06:12:53;66.53;;;29.52;;
37459;SDS011;23318;50.966;5.284;2022-12-10T06:15:19;70.07;;;30.63;;
37459;SDS011;23318;50.966;5.284;2022-12-10T06:17:45;74.13;;;31.08;;
37459;SDS011;23318;50.966;5.284;2022-12-10T06:20:10;69.07;;;30.92;;
37459;SDS011;23318;50.966;5.284;2022-12-10T06:22:36;70.72;;;31.20;;
37459;SDS011;23318;50.966;5.284;2022-12-10T06:25:02;70.55;;;30.05;;
37459;SDS011;23318;50.966;5.284;2022-12-10T06:27:29;67.13;;;29.98;;
37459;SDS011;23318;50.966;5.284;2022-12-10T06:29:56;70.25;;;30.85;;
37459;SDS011;23318;50.966;5.284;2022-12-10T06:32:21;64.00;;;29.55;;
37459;SDS011;23318;50.966;5.284;2022-12-10T06:34:47;71.47;;;31.52;;
37459;SDS011;23318;50.966;5.284;2022-12-10T06:37:13;74.50;;;30.85;;
37459;SDS011;23318;50.966;5.284;2022-12-10T06:39:38;72.20;;;30.80;;
37459;SDS011;23318;50.966;5.284;2022-12-10T06:42:04;74.72;;;30.98;;
37459;SDS011;23318;50.966;5.284;2022-12-10T06:44:30;67.85;;;30.42;;
37459;SDS011;23318;50.966;5.284;2022-12-10T06:46:56;72.97;;;31.35;;
37459;SDS011;23318;50.966;5.284;2022-12-10T06:49:22;76.72;;;31.58;;
37459;SDS011;23318;50.966;5.284;2022-12-10T06:51:47;73.15;;;30.83;;
37459;SDS011;23318;50.966;5.284;2022-12-10T06:54:13;72.10;;;30.77;;
37459;SDS011;23318;50.966;5.284;2022-12-10T06:56:39;63.85;;;29.50;;
37459;SDS011;23318;50.966;5.284;2022-12-10T06:59:05;71.93;;;31.60;;
37459;SDS011;23318;50.966;5.284;2022-12-10T07:01:31;70.00;;;29.88;;
37459;SDS011;23318;50.966;5.284;2022-12-10T07:03:57;73.13;;;29.75;;
37459;SDS011;23318;50.966;5.284;2022-12-10T07:06:23;73.07;;;29.95;;
37459;SDS011;23318;50.966;5.284;2022-12-10T07:08:51;72.75;;;30.75;;
37459;SDS011;23318;50.966;5.284;2022-12-10T07:11:18;74.97;;;31.10;;
37459;SDS011;23318;50.966;5.284;2022-12-10T07:13:45;77.40;;;33.50;;
37459;SDS011;23318;50.966;5.284;2022-12-10T07:16:21;89.55;;;33.08;;
37459;SDS011;23318;50.966;5.284;2022-12-10T07:18:53;84.15;;;33.92;;
37459;SDS011;23318;50.966;5.284;2022-12-10T07:23:47;91.60;;;35.92;;
37459;SDS011;23318;50.966;5.284;2022-12-10T07:26:13;97.43;;;37.05;;
37459;SDS011;23318;50.966;5.284;2022-12-10T07:28:38;88.50;;;35.03;;
37459;SDS011;23318;50.966;5.284;2022-12-10T07:31:05;89.80;;;34.42;;
37459;SDS011;23318;50.966;5.284;2022-12-10T07:33:32;94.32;;;35.20;;
37459;SDS011;23318;50.966;5.284;2022-12-10T07:35:58;96.68;;;37.92;;
37459;SDS011;23318;50.966;5.284;2022-12-10T07:38:24;103.45;;;39.05;;
37459;SDS011;23318;50.966;5.284;2022-12-10T07:40:50;102.55;;;39.25;;
37459;SDS011;23318;50.966;5.284;2022-12-10T07:43:16;101.55;;;38.50;;
37459;SDS011;23318;50.966;5.284;2022-12-10T07:45:42;86.47;;;34.35;;
37459;SDS011;23318;50.966;5.284;2022-12-10T07:48:09;87.45;;;33.42;;
37459;SDS011;23318;50.966;5.284;2022-12-10T07:50:35;87.97;;;34.33;;
37459;SDS011;23318;50.966;5.284;2022-12-10T07:53:01;96.78;;;35.30;;
37459;SDS011;23318;50.966;5.284;2022-12-10T07:55:26;95.53;;;36.75;;
37459;SDS011;23318;50.966;5.284;2022-12-10T07:57:52;91.47;;;38.30;;
37459;SDS011;23318;50.966;5.284;2022-12-10T08:00:18;89.68;;;37.33;;
37459;SDS011;23318;50.966;5.284;2022-12-10T08:02:43;91.75;;;38.20;;
37459;SDS011;23318;50.966;5.284;2022-12-10T08:05:09;98.47;;;38.67;;
37459;SDS011;23318;50.966;5.284;2022-12-10T08:07:35;102.53;;;39.58;;
37459;SDS011;23318;50.966;5.284;2022-12-10T08:10:01;104.60;;;41.38;;
37459;SDS011;23318;50.966;5.284;2022-12-10T08:12:26;100.05;;;39.42;;
37459;SDS011;23318;50.966;5.284;2022-12-10T08:14:52;98.20;;;38.97;;
37459;SDS011;23318;50.966;5.284;2022-12-10T08:17:18;105.00;;;40.25;;
37459;SDS011;23318;50.966;5.284;2022-12-10T08:19:43;93.30;;;38.22;;
37459;SDS011;23318;50.966;5.284;2022-12-10T08:22:09;97.47;;;39.45;;
37459;SDS011;23318;50.966;5.284;2022-12-10T08:24:34;96.72;;;39.50;;
37459;SDS011;23318;50.966;5.284;2022-12-10T08:27:01;110.05;;;42.55;;
37459;SDS011;23318;50.966;5.284;2022-12-10T08:29:26;116.22;;;47.25;;
37459;SDS011;23318;50.966;5.284;2022-12-10T08:31:52;115.90;;;46.22;;
37459;SDS011;23318;50.966;5.284;2022-12-10T08:34:18;113.65;;;46.78;;
37459;SDS011;23318;50.966;5.284;2022-12-10T08:36:44;98.82;;;41.83;;
37459;SDS011;23318;50.966;5.284;2022-12-10T08:39:10;102.53;;;38.88;;
37459;SDS011;23318;50.966;5.284;2022-12-10T08:41:40;81.28;;;31.65;;
37459;SDS011;23318;50.966;5.284;2022-12-10T08:44:06;103.28;;;37.83;;
37459;SDS011;23318;50.966;5.284;2022-12-10T08:46:31;101.15;;;37.35;;
37459;SDS011;23318;50.966;5.284;2022-12-10T08:48:57;100.50;;;37.50;;
37459;SDS011;23318;50.966;5.284;2022-12-10T08:51:24;100.88;;;39.15;;
37459;SDS011;23318;50.966;5.284;2022-12-10T08:53:50;98.75;;;39.13;;
37459;SDS011;23318;50.966;5.284;2022-12-10T08:56:16;102.93;;;37.92;;
37459;SDS011;23318;50.966;5.284;2022-12-10T08:58:42;101.88;;;38.22;;
37459;SDS011;23318;50.966;5.284;2022-12-10T09:01:08;107.35;;;39.97;;
37459;SDS011;23318;50.966;5.284;2022-12-10T09:03:35;105.43;;;39.10;;
37459;SDS011;23318;50.966;5.284;2022-12-10T09:06:03;95.05;;;34.65;;
37459;SDS011;23318;50.966;5.284;2022-12-10T09:08:33;97.97;;;33.72;;
37459;SDS011;23318;50.966;5.284;2022-12-10T09:11:03;99.93;;;37.15;;
37459;SDS011;23318;50.966;5.284;2022-12-10T09:13:39;93.80;;;33.80;;
37459;SDS011;23318;50.966;5.284;2022-12-10T09:16:05;106.53;;;37.10;;
37459;SDS011;23318;50.966;5.284;2022-12-10T09:18:31;101.88;;;37.80;;
37459;SDS011;23318;50.966;5.284;2022-12-10T09:20:57;101.97;;;37.60;;
37459;SDS011;23318;50.966;5.284;2022-12-10T09:23:22;99.38;;;38.63;;
37459;SDS011;23318;50.966;5.284;2022-12-10T09:25:48;106.20;;;39.00;;
37459;SDS011;23318;50.966;5.284;2022-12-10T09:28:14;113.40;;;38.95;;
37459;SDS011;23318;50.966;5.284;2022-12-10T09:30:40;106.03;;;38.90;;
37459;SDS011;23318;50.966;5.284;2022-12-10T09:33:06;90.72;;;34.10;;
37459;SDS011;23318;50.966;5.284;2022-12-10T09:35:31;80.32;;;30.92;;
37459;SDS011;23318;50.966;5.284;2022-12-10T09:37:58;95.40;;;31.23;;
37459;SDS011;23318;50.966;5.284;2022-12-10T09:40:35;85.03;;;31.95;;
37459;SDS011;23318;50.966;5.284;2022-12-10T09:48:35;86.80;;;33.28;;
37459;SDS011;23318;50.966;5.284;2022-12-10T09:51:29;97.28;;;34.97;;
37459;SDS011;23318;50.966;5.284;2022-12-10T09:53:59;91.25;;;34.15;;
37459;SDS011;23318;50.966;5.284;2022-12-10T09:56:29;99.20;;;34.47;;
37459;SDS011;23318;50.966;5.284;2022-12-10T09:59:00;98.13;;;35.30;;
37459;SDS011;23318;50.966;5.284;2022-12-10T10:01:29;99.10;;;33.20;;
37459;SDS011;23318;50.966;5.284;2022-12-10T10:03:58;94.55;;;33.05;;
37459;SDS011;23318;50.966;5.284;2022-12-10T10:06:24;98.53;;;36.92;;
37459;SDS011;23318;50.966;5.284;2022-12-10T10:08:53;99.18;;;34.80;;
37459;SDS011;23318;50.966;5.284;2022-12-10T10:11:23;108.78;;;35.53;;
37459;SDS011;23318;50.966;5.284;2022-12-10T10:13:54;109.32;;;38.72;;
37459;SDS011;23318;50.966;5.284;2022-12-10T10:16:33;102.10;;;33.22;;
37459;SDS011;23318;50.966;5.284;2022-12-10T10:19:12;109.72;;;33.88;;
37459;SDS011;23318;50.966;5.284;2022-12-10T10:21:50;97.03;;;33.95;;
37459;SDS011;23318;50.966;5.284;2022-12-10T10:24:18;122.32;;;38.65;;
37459;SDS011;23318;50.966;5.284;2022-12-10T10:26:49;113.15;;;35.72;;
37459;SDS011;23318;50.966;5.284;2022-12-10T10:29:18;115.80;;;38.60;;
37459;SDS011;23318;50.966;5.284;2022-12-10T10:31:46;129.15;;;42.25;;
37459;SDS011;23318;50.966;5.284;2022-12-10T10:34:14;125.70;;;39.60;;
37459;SDS011;23318;50.966;5.284;2022-12-10T10:36:58;118.72;;;39.08;;
37459;SDS011;23318;50.966;5.284;2022-12-10T10:39:28;109.72;;;37.38;;
37459;SDS011;23318;50.966;5.284;2022-12-10T10:41:56;116.90;;;38.70;;
37459;SDS011;23318;50.966;5.284;2022-12-10T10:44:26;111.28;;;37.83;;
37459;SDS011;23318;50.966;5.284;2022-12-10T10:47:00;118.90;;;39.47;;
37459;SDS011;23318;50.966;5.284;2022-12-10T10:49:27;113.18;;;37.88;;
37459;SDS011;23318;50.966;5.284;2022-12-10T10:52:13;114.80;;;38.88;;
37459;SDS011;23318;50.966;5.284;2022-12-10T10:54:42;119.50;;;37.05;;
37459;SDS011;23318;50.966;5.284;2022-12-10T10:59:43;117.57;;;38.78;;
37459;SDS011;23318;50.966;5.284;2022-12-10T11:04:45;126.85;;;41.60;;
37459;SDS011;23318;50.966;5.284;2022-12-10T11:10:19;110.72;;;37.70;;
37459;SDS011;23318;50.966;5.284;2022-12-10T11:13:22;115.50;;;38.35;;
37459;SDS011;23318;50.966;5.284;2022-12-10T11:18:31;114.97;;;36.33;;
37459;SDS011;23318;50.966;5.284;2022-12-10T11:21:02;106.38;;;32.13;;
37459;SDS011;23318;50.966;5.284;2022-12-10T11:23:39;120.13;;;37.75;;
37459;SDS011;23318;50.966;5.284;2022-12-10T11:26:11;115.80;;;37.13;;
37459;SDS011;23318;50.966;5.284;2022-12-10T11:36:36;117.10;;;36.50;;
37459;SDS011;23318;50.966;5.284;2022-12-10T11:48:03;123.03;;;36.50;;
37459;SDS011;23318;50.966;5.284;2022-12-10T11:51:04;114.88;;;36.13;;
37459;SDS011;23318;50.966;5.284;2022-12-10T11:53:49;112.13;;;32.63;;
37459;SDS011;23318;50.966;5.284;2022-12-10T11:59:11;101.88;;;32.40;;
37459;SDS011;23318;50.966;5.284;2022-12-10T12:04:53;103.90;;;31.08;;
37459;SDS011;23318;50.966;5.284;2022-12-10T12:13:14;103.93;;;31.67;;
37459;SDS011;23318;50.966;5.284;2022-12-10T12:21:15;110.57;;;33.00;;
37459;SDS011;23318;50.966;5.284;2022-12-10T12:27:02;128.68;;;35.90;;
37459;SDS011;23318;50.966;5.284;2022-12-10T12:29:18;105.90;;;34.13;;
37459;SDS011;23318;50.966;5.284;2022-12-10T12:34:50;101.50;;;31.65;;
37459;SDS011;23318;50.966;5.284;2022-12-10T12:37:46;95.97;;;31.35;;
37459;SDS011;23318;50.966;5.284;2022-12-10T12:40:23;105.40;;;34.58;;
37459;SDS011;23318;50.966;5.284;2022-12-10T12:43:01;124.72;;;35.97;;
37459;SDS011;23318;50.966;5.284;2022-12-10T12:45:41;106.75;;;34.92;;
37459;SDS011;23318;50.966;5.284;2022-12-10T12:50:59;96.85;;;28.27;;
37459;SDS011;23318;50.966;5.284;2022-12-10T12:53:28;85.03;;;26.42;;
37459;SDS011;23318;50.966;5.284;2022-12-10T13:01:54;95.63;;;31.67;;
37459;SDS011;23318;50.966;5.284;2022-12-10T13:04:24;106.55;;;30.15;;
37459;SDS011;23318;50.966;5.284;2022-12-10T13:09:47;93.13;;;30.25;;
37459;SDS011;23318;50.966;5.284;2022-12-10T13:17:31;85.57;;;28.30;;
37459;SDS011;23318;50.966;5.284;2022-12-10T13:28:16;98.07;;;31.70;;
37459;SDS011;23318;50.966;5.284;2022-12-10T13:36:13;92.37;;;30.27;;
37459;SDS011;23318;50.966;5.284;2022-12-10T13:38:54;91.53;;;30.63;;
37459;SDS011;23318;50.966;5.284;2022-12-10T13:41:21;104.32;;;30.50;;
37459;SDS011;23318;50.966;5.284;2022-12-10T13:44:24;82.15;;;30.30;;
37459;SDS011;23318;50.966;5.284;2022-12-10T13:52:39;78.72;;;27.40;;
37459;SDS011;23318;50.966;5.284;2022-12-10T14:01:05;86.55;;;30.02;;
37459;SDS011;23318;50.966;5.284;2022-12-10T14:06:52;82.20;;;29.00;;
37459;SDS011;23318;50.966;5.284;2022-12-10T14:11:53;87.00;;;31.00;;
37459;SDS011;23318;50.966;5.284;2022-12-10T14:14:34;100.15;;;32.05;;
37459;SDS011;23318;50.966;5.284;2022-12-10T14:19:30;87.05;;;30.45;;
37459;SDS011;23318;50.966;5.284;2022-12-10T14:22:03;79.03;;;26.00;;
37459;SDS011;23318;50.966;5.284;2022-12-10T14:24:40;85.32;;;28.25;;
37459;SDS011;23318;50.966;5.284;2022-12-10T14:29:49;88.07;;;32.40;;
37459;SDS011;23318;50.966;5.284;2022-12-10T14:32:19;86.78;;;30.20;;
37459;SDS011;23318;50.966;5.284;2022-12-10T14:37:17;80.65;;;29.13;;
37459;SDS011;23318;50.966;5.284;2022-12-10T14:39:47;85.35;;;29.88;;
37459;SDS011;23318;50.966;5.284;2022-12-10T14:42:13;84.10;;;27.98;;
37459;SDS011;23318;50.966;5.284;2022-12-10T14:44:41;88.47;;;29.65;;
37459;SDS011;23318;50.966;5.284;2022-12-10T14:47:14;84.45;;;31.10;;
37459;SDS011;23318;50.966;5.284;2022-12-10T14:49:45;85.63;;;29.17;;
37459;SDS011;23318;50.966;5.284;2022-12-10T14:52:16;88.00;;;32.08;;
37459;SDS011;23318;50.966;5.284;2022-12-10T14:54:44;96.80;;;30.77;;
37459;SDS011;23318;50.966;5.284;2022-12-10T14:57:13;91.13;;;30.73;;
37459;SDS011;23318;50.966;5.284;2022-12-10T14:59:59;81.82;;;30.40;;
37459;SDS011;23318;50.966;5.284;2022-12-10T15:02:39;85.25;;;29.52;;
37459;SDS011;23318;50.966;5.284;2022-12-10T15:05:10;84.03;;;29.48;;
37459;SDS011;23318;50.966;5.284;2022-12-10T15:08:07;81.07;;;29.10;;
37459;SDS011;23318;50.966;5.284;2022-12-10T15:10:45;96.70;;;33.90;;
37459;SDS011;23318;50.966;5.284;2022-12-10T15:13:19;80.75;;;29.92;;
37459;SDS011;23318;50.966;5.284;2022-12-10T15:15:48;94.20;;;31.27;;
37459;SDS011;23318;50.966;5.284;2022-12-10T15:18:16;79.43;;;29.08;;
37459;SDS011;23318;50.966;5.284;2022-12-10T15:20:52;87.22;;;30.90;;
37459;SDS011;23318;50.966;5.284;2022-12-10T15:23:20;84.72;;;33.47;;
37459;SDS011;23318;50.966;5.284;2022-12-10T15:28:43;90.18;;;31.38;;
37459;SDS011;23318;50.966;5.284;2022-12-10T15:36:28;82.57;;;31.10;;
37459;SDS011;23318;50.966;5.284;2022-12-10T15:44:23;62.08;;;22.17;;
37459;SDS011;23318;50.966;5.284;2022-12-10T15:47:12;65.15;;;25.75;;
37459;SDS011;23318;50.966;5.284;2022-12-10T15:49:44;66.15;;;26.83;;
37459;SDS011;23318;50.966;5.284;2022-12-10T15:52:15;68.50;;;26.65;;
37459;SDS011;23318;50.966;5.284;2022-12-10T15:54:44;66.28;;;28.25;;
37459;SDS011;23318;50.966;5.284;2022-12-10T15:57:22;63.25;;;26.73;;
37459;SDS011;23318;50.966;5.284;2022-12-10T15:59:53;67.78;;;27.15;;
37459;SDS011;23318;50.966;5.284;2022-12-10T16:04:58;62.33;;;26.13;;
37459;SDS011;23318;50.966;5.284;2022-12-10T16:07:24;63.20;;;25.83;;
37459;SDS011;23318;50.966;5.284;2022-12-10T16:09:49;61.58;;;25.95;;
37459;SDS011;23318;50.966;5.284;2022-12-10T16:12:15;65.05;;;26.27;;
37459;SDS011;23318;50.966;5.284;2022-12-10T16:14:44;64.57;;;25.67;;
37459;SDS011;23318;50.966;5.284;2022-12-10T16:17:14;60.22;;;24.65;;
37459;SDS011;23318;50.966;5.284;2022-12-10T16:19:40;61.72;;;25.75;;
37459;SDS011;23318;50.966;5.284;2022-12-10T16:22:06;58.35;;;24.90;;
37459;SDS011;23318;50.966;5.284;2022-12-10T16:24:32;63.38;;;25.98;;
37459;SDS011;23318;50.966;5.284;2022-12-10T16:26:57;74.63;;;28.90;;
37459;SDS011;23318;50.966;5.284;2022-12-10T16:29:23;74.10;;;29.23;;
37459;SDS011;23318;50.966;5.284;2022-12-10T16:31:49;69.70;;;28.42;;
37459;SDS011;23318;50.966;5.284;2022-12-10T16:34:14;68.05;;;25.55;;
37459;SDS011;23318;50.966;5.284;2022-12-10T16:36:40;63.78;;;25.55;;
37459;SDS011;23318;50.966;5.284;2022-12-10T16:39:06;67.32;;;28.13;;
37459;SDS011;23318;50.966;5.284;2022-12-10T16:41:32;67.68;;;25.90;;
37459;SDS011;23318;50.966;5.284;2022-12-10T16:43:57;62.55;;;24.17;;
37459;SDS011;23318;50.966;5.284;2022-12-10T16:46:23;63.28;;;24.38;;
37459;SDS011;23318;50.966;5.284;2022-12-10T16:48:49;68.57;;;26.40;;
37459;SDS011;23318;50.966;5.284;2022-12-10T16:51:20;69.10;;;26.25;;
37459;SDS011;23318;50.966;5.284;2022-12-10T16:53:49;65.95;;;28.48;;
37459;SDS011;23318;50.966;5.284;2022-12-10T16:56:15;67.00;;;28.70;;